createdAt,value
2022-12-19T00:01:16.718Z,16.63
2022-12-19T00:03:50.915Z,18.55
2022-12-19T00:06:18.632Z,18.83
2022-12-19T00:08:46.533Z,16.35
2022-12-19T00:11:15.201Z,14.30
2022-12-19T00:13:42.874Z,20.63
2022-12-19T00:16:18.923Z,33.35
2022-12-19T00:18:47.301Z,17.48
2022-12-19T00:21:19.492Z,15.77
2022-12-19T00:23:46.931Z,23.52
2022-12-19T00:26:22.206Z,18.98
2022-12-19T00:28:52.196Z,9.50
2022-12-19T00:31:20.560Z,18.08
2022-12-19T00:33:48.014Z,14.18
2022-12-19T00:36:20.139Z,16.67
2022-12-19T00:38:51.392Z,17.67
2022-12-19T00:41:27.597Z,14.85
2022-12-19T00:44:02.453Z,18.58
2022-12-19T00:46:30.919Z,16.45
2022-12-19T00:48:57.817Z,16.67
2022-12-19T00:51:26.840Z,11.15
2022-12-19T00:53:55.128Z,18.20
2022-12-19T00:56:24.262Z,13.00
2022-12-19T00:58:51.101Z,10.52
2022-12-19T01:01:20.195Z,18.50
2022-12-19T01:04:18.682Z,19.05
2022-12-19T01:06:33.936Z,20.58
2022-12-19T01:09:01.007Z,23.08
2022-12-19T01:11:46.166Z,12.85
2022-12-19T01:14:19.002Z,22.48
2022-12-19T01:16:47.601Z,17.67
2022-12-19T01:19:14.217Z,24.55
2022-12-19T01:21:40.870Z,20.60
2022-12-19T01:24:10.983Z,27.30
2022-12-19T01:26:37.630Z,21.10
2022-12-19T01:29:05.104Z,12.93
2022-12-19T01:31:33.456Z,9.07
2022-12-19T01:34:01.299Z,10.68
2022-12-19T01:36:28.292Z,17.88
2022-12-19T01:38:58.206Z,18.42
2022-12-19T01:41:25.284Z,13.38
2022-12-19T01:44:03.582Z,21.35
2022-12-19T01:46:36.640Z,24.15
2022-12-19T01:49:05.002Z,25.38
2022-12-19T01:51:39.304Z,25.02
2022-12-19T01:54:08.993Z,20.23
2022-12-19T01:56:39.473Z,25.92
2022-12-19T01:59:12.793Z,15.35
2022-12-19T02:01:51.172Z,28.00
2022-12-19T02:04:19.184Z,14.00
2022-12-19T02:06:47.339Z,15.18
2022-12-19T02:09:14.550Z,17.65
2022-12-19T02:11:41.152Z,22.30
2022-12-19T02:14:07.810Z,15.00
2022-12-19T02:17:00.211Z,12.95
2022-12-19T02:19:47.385Z,21.70
2022-12-19T02:22:19.196Z,22.90
2022-12-19T02:24:57.809Z,16.92
2022-12-19T02:27:42.335Z,14.80
2022-12-19T02:30:11.458Z,18.88
2022-12-19T02:32:47.229Z,11.25
2022-12-19T02:35:19.545Z,12.57
2022-12-19T02:38:13.214Z,10.85
2022-12-19T02:40:44.194Z,12.13
2022-12-19T02:43:13.731Z,17.25
2022-12-19T02:45:41.586Z,14.65
2022-12-19T02:48:09.383Z,26.10
2022-12-19T02:50:41.160Z,22.13
2022-12-19T02:53:10.792Z,17.27
2022-12-19T02:56:02.248Z,21.20
2022-12-19T02:58:51.713Z,20.80
2022-12-19T03:15:55.359Z,26.65
2022-12-19T03:18:22.032Z,17.20
2022-12-19T03:20:53.232Z,19.27
2022-12-19T03:23:20.273Z,22.33
2022-12-19T03:25:50.304Z,15.77
2022-12-19T03:28:23.771Z,18.65
2022-12-19T03:30:50.749Z,17.77
2022-12-19T03:33:19.188Z,21.05
2022-12-19T03:35:46.801Z,30.92
2022-12-19T03:38:14.806Z,24.13
2022-12-19T03:40:44.320Z,27.23
2022-12-19T03:43:12.719Z,16.77
2022-12-19T03:46:02.891Z,22.42
2022-12-19T03:48:49.994Z,18.45
2022-12-19T03:51:57.873Z,20.67
2022-12-19T03:54:28.509Z,23.52
2022-12-19T03:57:12.055Z,28.85
2022-12-19T03:59:56.352Z,36.05
2022-12-19T04:02:24.064Z,34.30
2022-12-19T04:04:56.857Z,49.65
2022-12-19T04:07:23.987Z,57.50
2022-12-19T04:09:51.554Z,57.45
2022-12-19T04:12:24.233Z,55.63
2022-12-19T04:14:51.668Z,48.42
2022-12-19T04:17:30.910Z,41.08
2022-12-19T04:20:05.070Z,45.35
2022-12-19T04:22:34.719Z,26.02
2022-12-19T04:25:03.079Z,27.70
2022-12-19T04:27:31.922Z,28.13
2022-12-19T04:29:59.501Z,21.30
2022-12-19T04:32:27.791Z,24.73
2022-12-19T04:34:54.410Z,31.73
2022-12-19T04:37:21.285Z,28.92
2022-12-19T04:39:47.910Z,31.33
2022-12-19T04:42:14.478Z,26.98
2022-12-19T04:44:41.156Z,22.45
2022-12-19T04:47:07.886Z,28.70
2022-12-19T04:49:34.694Z,22.55
2022-12-19T04:52:01.301Z,22.77
2022-12-19T04:54:27.846Z,20.23
2022-12-19T04:56:54.740Z,16.88
2022-12-19T04:59:21.290Z,18.77
2022-12-19T05:01:47.973Z,20.33
2022-12-19T05:04:14.625Z,19.88
2022-12-19T05:06:41.362Z,17.20
2022-12-19T05:09:09.931Z,16.60
2022-12-19T05:11:36.587Z,20.33
2022-12-19T05:14:03.587Z,18.23
2022-12-19T05:16:30.293Z,18.33
2022-12-19T05:18:56.958Z,20.30
2022-12-19T05:21:23.843Z,20.98
2022-12-19T05:23:51.381Z,19.63
2022-12-19T05:26:18.013Z,17.83
2022-12-19T05:28:44.620Z,18.63
2022-12-19T05:31:17.018Z,18.63
2022-12-19T05:33:44.114Z,23.92
2022-12-19T05:36:11.958Z,17.20
2022-12-19T05:38:38.808Z,14.13
2022-12-19T05:41:10.790Z,11.93
2022-12-19T05:43:37.559Z,19.50
2022-12-19T05:46:05.396Z,14.75
2022-12-19T05:48:32.098Z,16.58
2022-12-19T05:50:58.667Z,20.20
2022-12-19T05:53:27.523Z,17.90
2022-12-19T05:56:11.868Z,14.88
2022-12-19T05:58:39.258Z,21.15
2022-12-19T06:01:12.332Z,23.23
2022-12-19T06:03:39.028Z,21.15
2022-12-19T06:06:08.640Z,20.73
2022-12-19T06:08:35.302Z,20.15
2022-12-19T06:11:03.731Z,31.33
2022-12-19T06:13:31.135Z,25.17
2022-12-19T06:16:10.297Z,18.40
2022-12-19T06:18:42.901Z,23.50
2022-12-19T06:21:13.345Z,24.25
2022-12-19T06:23:40.381Z,25.42
2022-12-19T06:26:07.957Z,24.88
2022-12-19T06:28:35.673Z,25.23
2022-12-19T06:31:04.371Z,29.95
2022-12-19T06:33:31.912Z,23.48
2022-12-19T06:36:02.872Z,24.77
2022-12-19T06:38:30.099Z,32.60
2022-12-19T06:41:15.108Z,34.70
2022-12-19T06:43:41.716Z,26.13
2022-12-19T06:46:08.583Z,32.15
2022-12-19T06:48:35.633Z,19.27
2022-12-19T06:51:02.505Z,24.55
2022-12-19T06:53:29.630Z,23.83
2022-12-19T06:55:57.875Z,24.75
2022-12-19T06:58:24.795Z,27.17
2022-12-19T07:00:51.589Z,33.22
2022-12-19T07:03:21.847Z,25.88
2022-12-19T07:05:48.695Z,25.17
2022-12-19T07:08:15.308Z,31.67
2022-12-19T07:10:41.991Z,19.75
2022-12-19T07:13:08.624Z,28.60
2022-12-19T07:15:36.286Z,43.50
2022-12-19T07:18:04.449Z,45.00
2022-12-19T07:20:31.937Z,32.10
2022-12-19T07:22:59.209Z,30.33
2022-12-19T07:25:25.795Z,27.13
2022-12-19T07:27:52.539Z,31.67
2022-12-19T07:30:19.215Z,42.63
2022-12-19T07:32:45.848Z,32.50
2022-12-19T07:35:12.447Z,34.08
2022-12-19T07:37:39.062Z,42.03
2022-12-19T07:40:06.532Z,35.42
2022-12-19T07:42:34.103Z,34.90
2022-12-19T07:45:01.499Z,40.22
2022-12-19T07:47:28.208Z,39.80
2022-12-19T07:49:54.879Z,30.15
2022-12-19T07:52:21.523Z,27.58
2022-12-19T07:54:48.068Z,15.05
2022-12-19T07:57:14.691Z,35.53
2022-12-19T07:59:41.297Z,42.92
2022-12-19T08:02:08.210Z,37.22
2022-12-19T08:04:34.981Z,29.08
2022-12-19T08:07:02.484Z,45.33
2022-12-19T08:09:29.262Z,25.33
2022-12-19T08:11:55.974Z,38.15
2022-12-19T08:14:22.601Z,31.35
2022-12-19T08:17:19.421Z,29.90
2022-12-19T08:19:36.090Z,32.35
2022-12-19T08:22:02.732Z,25.77
2022-12-19T08:24:30.921Z,26.50
2022-12-19T08:26:58.908Z,26.25
2022-12-19T08:29:25.591Z,23.77
2022-12-19T08:31:52.263Z,25.20
2022-12-19T08:34:19.011Z,30.90
2022-12-19T08:36:45.599Z,22.92
2022-12-19T08:39:12.160Z,23.42
2022-12-19T08:41:38.762Z,18.80
2022-12-19T08:44:05.499Z,23.90
2022-12-19T08:46:32.213Z,25.60
2022-12-19T08:48:58.909Z,17.23
2022-12-19T08:51:27.099Z,20.23
2022-12-19T08:53:53.700Z,24.52
2022-12-19T08:56:21.813Z,23.90
2022-12-19T08:58:48.827Z,26.58
2022-12-19T09:01:19.337Z,19.45
2022-12-19T09:05:02.099Z,24.50
2022-12-19T09:06:33.434Z,31.55
2022-12-19T09:09:00.600Z,26.08
2022-12-19T09:11:27.593Z,27.42
2022-12-19T09:13:56.489Z,22.75
2022-12-19T09:16:24.864Z,25.83
2022-12-19T09:18:54.206Z,24.42
2022-12-19T09:21:22.590Z,22.52
2022-12-19T09:23:51.073Z,25.58
2022-12-19T09:26:18.290Z,24.00
2022-12-19T09:28:45.845Z,22.58
2022-12-19T09:31:14.942Z,22.42
2022-12-19T09:33:43.890Z,26.70
2022-12-19T09:36:20.240Z,28.38
2022-12-19T09:38:47.360Z,25.08
2022-12-19T09:41:13.910Z,24.45
2022-12-19T09:43:57.251Z,23.65
2022-12-19T09:46:35.010Z,25.45
2022-12-19T09:49:01.886Z,23.88
2022-12-19T09:51:34.823Z,24.17
2022-12-19T09:54:15.262Z,33.35
2022-12-19T09:56:45.769Z,18.13
2022-12-19T09:59:29.510Z,39.42
2022-12-19T10:02:51.865Z,27.52
2022-12-19T10:07:03.422Z,31.63
2022-12-19T10:08:38.070Z,28.45
2022-12-19T10:12:39.853Z,22.50
2022-12-19T10:14:53.241Z,24.48
2022-12-19T10:17:46.011Z,24.20
2022-12-19T10:20:25.672Z,19.75
2022-12-19T10:23:10.770Z,28.52
2022-12-19T10:25:50.821Z,22.23
2022-12-19T10:28:33.106Z,23.20
2022-12-19T10:31:22.072Z,31.58
2022-12-19T10:34:06.850Z,31.38
2022-12-19T10:37:12.848Z,25.92
2022-12-19T10:39:47.236Z,21.88
2022-12-19T10:42:30.705Z,23.60
2022-12-19T10:44:59.255Z,17.23
2022-12-19T10:47:25.904Z,23.13
2022-12-19T10:49:52.484Z,22.60
2022-12-19T10:52:46.563Z,26.45
2022-12-19T10:55:45.675Z,25.70
2022-12-19T10:58:19.462Z,35.33
2022-12-19T11:01:05.410Z,22.92
2022-12-19T11:03:34.115Z,29.30
2022-12-19T11:06:02.748Z,20.65
2022-12-19T11:08:33.521Z,31.17
2022-12-19T11:12:02.658Z,21.05
2022-12-19T11:18:43.493Z,25.73
2022-12-19T11:26:07.195Z,26.30
2022-12-19T11:29:30.357Z,26.13
2022-12-19T11:29:44.648Z,25.55
2022-12-19T11:30:09.921Z,23.15
2022-12-19T11:30:49.021Z,23.63
2022-12-19T11:34:37.242Z,19.45
2022-12-19T11:37:21.359Z,27.25
2022-12-19T11:39:51.705Z,25.92
2022-12-19T11:42:24.796Z,24.15
2022-12-19T11:44:57.668Z,26.77
2022-12-19T11:47:42.502Z,25.30
2022-12-19T11:50:17.020Z,25.38
2022-12-19T11:53:04.889Z,27.23
2022-12-19T11:56:02.735Z,26.10
2022-12-19T11:58:32.827Z,25.50
2022-12-19T12:01:05.533Z,22.95
2022-12-19T12:04:06.385Z,24.92
2022-12-19T12:06:45.492Z,30.13
2022-12-19T12:13:07.325Z,29.05
2022-12-19T12:19:53.845Z,24.15
2022-12-19T12:26:14.123Z,28.23
2022-12-19T12:31:14.249Z,25.52
2022-12-19T12:31:55.328Z,25.27
2022-12-19T12:31:57.030Z,23.90
2022-12-19T12:35:05.928Z,29.80
2022-12-19T12:35:30.673Z,24.63
2022-12-19T12:39:59.675Z,22.77
2022-12-19T12:43:01.390Z,34.30
2022-12-19T12:45:42.067Z,25.15
2022-12-19T12:48:32.391Z,31.20
2022-12-19T12:51:00.569Z,31.33
2022-12-19T12:53:33.334Z,29.95
2022-12-19T12:56:02.421Z,25.35
2022-12-19T12:58:50.963Z,28.85
2022-12-19T13:01:30.417Z,32.22
2022-12-19T13:04:17.412Z,29.85
2022-12-19T13:06:50.260Z,27.88
2022-12-19T13:09:26.598Z,29.33
2022-12-19T13:12:36.680Z,34.90
2022-12-19T13:15:22.206Z,23.58
2022-12-19T13:17:49.435Z,23.60
2022-12-19T13:20:19.249Z,28.10
2022-12-19T13:22:59.125Z,28.30
2022-12-19T13:25:34.997Z,27.17
2022-12-19T13:28:01.687Z,27.30
2022-12-19T13:30:50.116Z,28.48
2022-12-19T13:33:20.165Z,28.42
2022-12-19T13:39:37.057Z,26.13
2022-12-19T13:39:56.171Z,27.77
2022-12-19T13:41:59.621Z,32.20
2022-12-19T13:44:26.615Z,28.48
